createdAt,value
2018-12-15T00:00:34.844Z,99.90
2018-12-15T00:03:03.634Z,99.90
2018-12-15T00:05:32.789Z,99.90
2018-12-15T00:08:01.394Z,99.90
2018-12-15T00:10:29.955Z,99.90
2018-12-15T00:12:58.672Z,99.90
2018-12-15T00:15:27.275Z,99.90
2018-12-15T00:17:55.924Z,99.90
2018-12-15T00:20:25.462Z,99.90
2018-12-15T00:22:53.981Z,99.90
2018-12-15T00:25:22.603Z,99.90
2018-12-15T00:27:51.210Z,99.90
2018-12-15T00:30:19.795Z,99.90
2018-12-15T00:32:48.372Z,99.90
2018-12-15T00:35:17.095Z,99.90
2018-12-15T00:37:45.612Z,99.90
2018-12-15T00:40:14.255Z,99.90
2018-12-15T00:42:43.373Z,99.90
2018-12-15T00:45:11.910Z,99.90
2018-12-15T00:47:40.407Z,99.90
2018-12-15T00:50:08.942Z,99.90
2018-12-15T00:52:37.445Z,99.90
2018-12-15T00:55:06.136Z,99.90
2018-12-15T00:57:35.215Z,99.90
2018-12-15T01:00:04.443Z,99.90
2018-12-15T01:02:33.035Z,99.90
2018-12-15T01:05:01.601Z,99.90
2018-12-15T01:07:30.173Z,99.90
2018-12-15T01:09:58.689Z,99.90
2018-12-15T01:12:27.269Z,99.90
2018-12-15T01:14:55.815Z,99.90
2018-12-15T01:17:24.334Z,99.90
2018-12-15T01:19:52.830Z,99.90
2018-12-15T01:22:21.378Z,99.90
2018-12-15T01:24:50.087Z,99.90
2018-12-15T01:27:18.599Z,99.90
2018-12-15T01:29:47.106Z,99.90
2018-12-15T01:32:15.696Z,99.90
2018-12-15T01:34:44.296Z,99.90
2018-12-15T01:37:12.821Z,99.90
2018-12-15T01:39:41.420Z,99.90
2018-12-15T01:42:09.982Z,99.90
2018-12-15T01:44:38.772Z,99.90
2018-12-15T01:47:07.346Z,99.90
2018-12-15T01:49:35.886Z,99.90
2018-12-15T01:52:04.512Z,99.90
2018-12-15T01:54:33.052Z,99.90
2018-12-15T01:57:01.541Z,99.90
2018-12-15T01:59:30.619Z,99.90
2018-12-15T02:01:59.345Z,99.90
2018-12-15T02:04:28.147Z,99.90
2018-12-15T02:06:56.727Z,99.90
2018-12-15T02:09:25.440Z,99.90
2018-12-15T02:11:53.988Z,99.90
2018-12-15T02:14:22.522Z,99.90
2018-12-15T02:16:51.043Z,99.90
2018-12-15T02:19:19.596Z,99.90
2018-12-15T02:21:48.090Z,99.90
2018-12-15T02:24:16.659Z,99.90
2018-12-15T02:26:45.205Z,99.90
2018-12-15T02:29:16.349Z,99.90
2018-12-15T02:31:45.368Z,99.90
2018-12-15T02:34:13.921Z,99.90
2018-12-15T02:36:42.455Z,99.90
2018-12-15T02:39:11.066Z,99.90
2018-12-15T02:41:46.956Z,99.90
2018-12-15T02:44:10.139Z,99.90
2018-12-15T02:46:38.637Z,99.90
2018-12-15T02:49:07.205Z,99.90
2018-12-15T02:51:35.781Z,99.90
2018-12-15T02:54:04.528Z,99.90
2018-12-15T02:56:33.018Z,99.90
2018-12-15T02:59:01.538Z,99.90
2018-12-15T03:01:30.119Z,99.90
2018-12-15T03:03:58.671Z,99.90
2018-12-15T03:06:27.187Z,99.90
2018-12-15T03:08:55.723Z,99.90
2018-12-15T03:11:24.346Z,99.90
2018-12-15T03:13:52.911Z,99.90
2018-12-15T03:16:21.387Z,99.90
2018-12-15T03:18:49.934Z,99.90
2018-12-15T03:21:18.561Z,99.90
2018-12-15T03:23:47.132Z,99.90
2018-12-15T03:26:15.713Z,99.90
2018-12-15T03:28:44.199Z,99.90
2018-12-15T03:31:12.774Z,99.90
2018-12-15T03:33:41.271Z,99.90
2018-12-15T03:36:09.787Z,99.90
2018-12-15T03:38:38.294Z,99.90
2018-12-15T03:41:07.377Z,99.90
2018-12-15T03:43:35.893Z,99.90
2018-12-15T03:46:04.402Z,99.90
2018-12-15T03:48:32.930Z,99.90
2018-12-15T03:51:01.471Z,99.90
2018-12-15T03:53:30.017Z,99.90
2018-12-15T03:55:58.527Z,99.90
2018-12-15T03:58:27.055Z,99.90
2018-12-15T04:00:55.645Z,99.90
2018-12-15T04:03:24.293Z,99.90
2018-12-15T04:05:52.930Z,99.90
2018-12-15T04:08:21.642Z,99.90
2018-12-15T04:10:50.180Z,99.90
2018-12-15T04:13:18.747Z,99.90
2018-12-15T04:15:47.296Z,99.90
2018-12-15T04:18:15.939Z,99.90
2018-12-15T04:20:44.467Z,99.90
2018-12-15T04:23:13.014Z,99.90
2018-12-15T04:25:41.512Z,99.90
2018-12-15T04:28:10.057Z,99.90
2018-12-15T04:30:38.565Z,99.90
2018-12-15T04:33:07.074Z,99.90
2018-12-15T04:35:35.613Z,99.90
2018-12-15T04:38:04.119Z,99.90
2018-12-15T04:40:32.923Z,99.90
2018-12-15T04:43:01.546Z,99.90
2018-12-15T04:45:30.379Z,99.90
2018-12-15T04:47:59.282Z,99.90
2018-12-15T04:50:27.805Z,99.90
2018-12-15T04:52:56.353Z,99.90
2018-12-15T04:55:24.943Z,99.90
2018-12-15T04:57:53.563Z,99.90
2018-12-15T05:00:22.101Z,99.90
2018-12-15T05:02:50.633Z,99.90
2018-12-15T05:05:19.385Z,99.90
2018-12-15T05:07:47.949Z,99.90
2018-12-15T05:10:16.509Z,99.90
2018-12-15T05:12:45.095Z,99.90
2018-12-15T05:15:16.547Z,99.90
2018-12-15T05:17:45.087Z,99.90
2018-12-15T05:20:14.687Z,99.90
2018-12-15T05:22:43.264Z,99.90
2018-12-15T05:25:12.075Z,99.90
2018-12-15T05:27:40.691Z,99.90
2018-12-15T05:30:09.362Z,99.90
2018-12-15T05:32:37.883Z,99.90
2018-12-15T05:35:06.432Z,99.90
2018-12-15T05:37:34.987Z,99.90
2018-12-15T05:40:03.533Z,99.90
2018-12-15T05:42:32.071Z,99.90
2018-12-15T05:45:00.599Z,99.90
2018-12-15T05:47:29.116Z,99.90
2018-12-15T05:49:57.761Z,99.90
2018-12-15T05:52:26.286Z,99.90
2018-12-15T05:54:54.824Z,99.90
2018-12-15T05:57:23.336Z,99.90
2018-12-15T05:59:51.904Z,99.90
2018-12-15T06:02:21.301Z,99.90
2018-12-15T06:04:49.843Z,99.90
2018-12-15T06:07:18.396Z,99.90
2018-12-15T06:09:47.023Z,99.90
2018-12-15T06:12:15.540Z,99.90
2018-12-15T06:14:44.076Z,99.90
2018-12-15T06:17:12.720Z,99.90
2018-12-15T06:19:41.284Z,99.90
2018-12-15T06:22:09.812Z,99.90
2018-12-15T06:24:38.335Z,99.90
2018-12-15T06:27:06.883Z,99.90
2018-12-15T06:29:35.387Z,99.90
2018-12-15T06:32:03.957Z,99.90
2018-12-15T06:34:32.448Z,99.90
2018-12-15T06:37:01.543Z,99.90
2018-12-15T06:39:30.063Z,99.90
2018-12-15T06:41:58.620Z,99.90
2018-12-15T06:44:28.212Z,99.90
2018-12-15T06:46:56.714Z,99.90
2018-12-15T06:49:26.176Z,99.90
2018-12-15T06:51:54.745Z,99.90
2018-12-15T06:54:23.299Z,99.90
2018-12-15T06:56:51.848Z,99.90
2018-12-15T06:59:20.333Z,99.90
2018-12-15T07:01:48.845Z,99.90
2018-12-15T07:04:17.426Z,99.90
2018-12-15T07:06:45.971Z,99.90
2018-12-15T07:09:14.591Z,99.90
2018-12-15T07:11:43.136Z,99.90
2018-12-15T07:14:11.898Z,99.90
2018-12-15T07:16:40.557Z,99.90
2018-12-15T07:19:09.090Z,99.90
2018-12-15T07:21:38.059Z,99.90
2018-12-15T07:24:06.662Z,99.90
2018-12-15T07:26:35.257Z,99.90
2018-12-15T07:29:03.941Z,99.90
2018-12-15T07:31:32.480Z,99.90
2018-12-15T07:34:01.689Z,99.90
2018-12-15T07:36:31.222Z,99.90
2018-12-15T07:38:59.756Z,99.90
2018-12-15T07:41:28.238Z,99.90
2018-12-15T07:43:56.868Z,99.90
2018-12-15T07:46:25.526Z,99.90
2018-12-15T07:48:54.082Z,99.90
2018-12-15T07:51:23.788Z,99.90
2018-12-15T07:53:52.384Z,99.90
2018-12-15T07:56:23.532Z,99.90
2018-12-15T07:58:52.084Z,99.90
2018-12-15T08:01:20.716Z,99.90
2018-12-15T08:03:49.282Z,99.90
2018-12-15T08:06:17.870Z,99.90
2018-12-15T08:08:46.455Z,99.90
2018-12-15T08:11:20.430Z,99.90
2018-12-15T08:13:51.199Z,99.90
2018-12-15T08:16:19.773Z,99.90
2018-12-15T08:18:48.315Z,99.90
2018-12-15T08:21:16.935Z,99.90
2018-12-15T08:23:45.473Z,99.90
2018-12-15T08:26:14.016Z,99.90
2018-12-15T08:28:42.561Z,99.90
2018-12-15T08:31:11.166Z,99.90
2018-12-15T08:33:39.764Z,99.90
2018-12-15T08:36:08.422Z,99.90
2018-12-15T08:38:36.921Z,99.90
2018-12-15T08:41:05.501Z,99.90
2018-12-15T08:43:34.075Z,99.90
2018-12-15T08:46:04.457Z,99.90
2018-12-15T08:48:33.077Z,99.90
2018-12-15T08:51:02.174Z,99.90
2018-12-15T08:53:31.293Z,99.90
2018-12-15T08:55:59.850Z,99.90
2018-12-15T08:58:28.591Z,99.90
2018-12-15T09:00:57.149Z,98.80
2018-12-15T09:03:25.657Z,95.20
2018-12-15T09:05:54.205Z,95.70
2018-12-15T09:08:22.787Z,96.00
2018-12-15T09:10:51.311Z,96.20
2018-12-15T09:13:19.901Z,97.00
2018-12-15T09:15:48.390Z,98.60
2018-12-15T09:18:17.009Z,99.40
2018-12-15T09:20:45.599Z,99.90
2018-12-15T09:23:14.647Z,99.90
2018-12-15T09:25:43.248Z,99.90
2018-12-15T09:28:12.797Z,99.90
2018-12-15T09:30:41.345Z,99.90
2018-12-15T09:33:09.855Z,99.90
2018-12-15T09:35:38.393Z,99.90
2018-12-15T09:38:06.961Z,99.90
2018-12-15T09:40:35.565Z,99.90
2018-12-15T09:43:05.958Z,99.70
2018-12-15T09:45:34.669Z,97.60
2018-12-15T09:48:03.228Z,98.20
2018-12-15T09:50:31.769Z,98.10
2018-12-15T09:53:00.312Z,98.60
2018-12-15T09:55:28.866Z,99.70
2018-12-15T09:57:57.546Z,99.90
2018-12-15T10:00:26.129Z,99.90
2018-12-15T10:02:54.800Z,99.90
2018-12-15T10:05:23.799Z,99.90
2018-12-15T10:07:52.564Z,99.90
2018-12-15T10:10:21.098Z,99.50
2018-12-15T10:12:49.612Z,99.40
2018-12-15T10:15:18.275Z,99.10
2018-12-15T10:17:46.883Z,99.60
2018-12-15T10:20:15.410Z,98.60
2018-12-15T10:22:43.926Z,98.50
2018-12-15T10:25:12.457Z,98.90
2018-12-15T10:27:41.000Z,97.60
2018-12-15T10:30:15.168Z,96.90
2018-12-15T10:32:49.307Z,97.20
2018-12-15T10:35:17.889Z,97.10
2018-12-15T10:37:46.417Z,97.10
2018-12-15T10:40:15.077Z,97.00
2018-12-15T10:42:43.607Z,96.60
2018-12-15T10:45:12.243Z,96.10
2018-12-15T10:47:40.771Z,96.00
2018-12-15T10:50:10.643Z,95.80
2018-12-15T10:52:39.299Z,95.10
2018-12-15T10:55:09.177Z,95.30
2018-12-15T10:57:37.827Z,95.00
2018-12-15T11:00:13.356Z,94.90
2018-12-15T11:02:42.016Z,95.40
2018-12-15T11:05:10.555Z,95.20
2018-12-15T11:07:39.212Z,95.40
2018-12-15T11:10:07.903Z,95.30
2018-12-15T11:12:36.425Z,95.80
2018-12-15T11:15:06.307Z,94.20
2018-12-15T11:17:34.895Z,95.10
2018-12-15T11:20:04.175Z,95.50
2018-12-15T11:22:34.062Z,94.80
2018-12-15T11:25:02.936Z,95.20
2018-12-15T11:27:31.902Z,96.30
2018-12-15T11:30:00.520Z,95.60
2018-12-15T11:32:29.107Z,95.20
2018-12-15T11:34:57.805Z,94.60
2018-12-15T11:37:26.379Z,94.50
2018-12-15T11:39:55.230Z,95.10
2018-12-15T11:42:24.334Z,95.40
2018-12-15T11:44:52.933Z,96.00
2018-12-15T11:47:21.495Z,95.60
2018-12-15T11:49:50.081Z,96.00
2018-12-15T11:52:18.601Z,96.30
2018-12-15T11:54:47.166Z,96.50
2018-12-15T11:57:15.758Z,96.00
2018-12-15T11:59:44.742Z,97.00
2018-12-15T12:02:13.364Z,96.70
2018-12-15T12:04:41.983Z,97.00
2018-12-15T12:07:10.506Z,96.80
2018-12-15T12:09:39.147Z,98.00
2018-12-15T12:12:07.809Z,97.10
2018-12-15T12:14:36.328Z,97.60
2018-12-15T12:17:05.037Z,97.70
2018-12-15T12:19:33.583Z,98.00
2018-12-15T12:22:02.307Z,97.90
2018-12-15T12:24:31.568Z,97.30
2018-12-15T12:27:00.182Z,97.70
2018-12-15T12:29:28.706Z,98.00
2018-12-15T12:31:57.285Z,97.90
2018-12-15T12:34:25.873Z,98.10
2018-12-15T12:36:54.491Z,98.00
2018-12-15T12:39:23.501Z,97.70
2018-12-15T12:41:52.067Z,97.50
2018-12-15T12:44:20.549Z,97.70
2018-12-15T12:46:49.120Z,97.70
2018-12-15T12:49:17.635Z,98.30
2018-12-15T12:51:46.157Z,98.40
2018-12-15T12:54:14.671Z,98.90
2018-12-15T12:56:43.366Z,98.70
2018-12-15T12:59:11.947Z,97.80
2018-12-15T13:01:40.549Z,97.50
2018-12-15T13:04:09.187Z,98.20
2018-12-15T13:06:38.304Z,98.70
2018-12-15T13:09:07.596Z,98.70
2018-12-15T13:11:36.089Z,98.60
2018-12-15T13:14:04.801Z,98.00
2018-12-15T13:16:33.713Z,98.00
2018-12-15T13:19:03.311Z,98.70
2018-12-15T13:21:31.863Z,99.50
2018-12-15T13:24:00.471Z,98.70
2018-12-15T13:26:29.041Z,99.40
2018-12-15T13:28:57.553Z,99.30
2018-12-15T13:31:26.188Z,98.60
2018-12-15T13:33:54.795Z,98.70
2018-12-15T13:36:23.529Z,99.00
2018-12-15T13:38:52.092Z,99.10
2018-12-15T13:41:21.141Z,99.50
2018-12-15T13:43:49.674Z,98.70
2018-12-15T13:46:18.338Z,98.60
2018-12-15T13:48:47.457Z,98.80
2018-12-15T13:51:16.318Z,99.40
2018-12-15T13:53:44.908Z,99.90
2018-12-15T13:56:13.642Z,99.60
2018-12-15T13:58:42.229Z,99.90
2018-12-15T14:01:10.926Z,99.90
2018-12-15T14:03:39.595Z,99.90
2018-12-15T14:06:08.201Z,99.90
2018-12-15T14:08:36.868Z,99.90
2018-12-15T14:11:05.565Z,99.90
2018-12-15T14:13:34.254Z,99.90
2018-12-15T14:16:02.948Z,99.90
2018-12-15T14:18:32.096Z,99.90
2018-12-15T14:21:01.403Z,99.90
2018-12-15T14:23:31.356Z,99.90
2018-12-15T14:26:02.317Z,99.90
2018-12-15T14:28:30.990Z,99.90
2018-12-15T14:30:59.714Z,99.90
2018-12-15T14:33:28.378Z,99.90
2018-12-15T14:35:56.965Z,99.90
2018-12-15T14:38:25.510Z,99.90
2018-12-15T14:40:54.125Z,99.90
2018-12-15T14:43:22.645Z,99.90
2018-12-15T14:45:51.224Z,99.90
2018-12-15T14:48:19.766Z,99.90
2018-12-15T14:50:48.410Z,99.90
2018-12-15T14:53:16.989Z,99.90
2018-12-15T14:55:45.844Z,99.90
2018-12-15T14:58:14.438Z,99.90
2018-12-15T15:00:42.986Z,99.90
2018-12-15T15:03:11.484Z,99.90
2018-12-15T15:05:40.190Z,99.90
2018-12-15T15:08:08.837Z,99.90
2018-12-15T15:10:37.583Z,99.90
2018-12-15T15:13:06.125Z,99.90
2018-12-15T15:15:34.752Z,99.90
2018-12-15T15:18:03.337Z,99.90
2018-12-15T15:20:32.383Z,99.90
2018-12-15T15:23:00.964Z,99.90
2018-12-15T15:25:29.469Z,99.90
2018-12-15T15:27:58.095Z,99.90
2018-12-15T15:30:26.620Z,99.90
2018-12-15T15:32:55.773Z,99.90
2018-12-15T15:35:24.398Z,99.90
2018-12-15T15:37:53.100Z,99.90
2018-12-15T15:40:21.764Z,99.90
2018-12-15T15:42:50.370Z,99.90
2018-12-15T15:45:18.900Z,99.90
2018-12-15T15:47:47.456Z,99.90
2018-12-15T15:50:16.203Z,99.90
2018-12-15T15:52:45.022Z,99.90
2018-12-15T15:55:13.551Z,99.90
2018-12-15T15:57:42.176Z,99.90
2018-12-15T16:00:11.574Z,99.90
2018-12-15T16:02:40.283Z,99.90
2018-12-15T16:05:08.954Z,99.90
2018-12-15T16:07:37.726Z,99.90
2018-12-15T16:10:09.323Z,99.90
2018-12-15T16:12:37.799Z,99.90
2018-12-15T16:15:08.486Z,99.90
2018-12-15T16:17:37.043Z,99.90
2018-12-15T16:20:07.938Z,99.90
2018-12-15T16:22:36.509Z,99.90
2018-12-15T16:25:05.578Z,99.90
2018-12-15T16:27:34.659Z,99.90
2018-12-15T16:30:04.083Z,99.90
2018-12-15T16:32:32.667Z,99.90
2018-12-15T16:35:01.247Z,99.90
2018-12-15T16:37:29.821Z,99.90
2018-12-15T16:39:58.363Z,99.90
2018-12-15T16:42:27.533Z,99.90
2018-12-15T16:44:56.547Z,99.90
2018-12-15T16:47:25.329Z,99.90
2018-12-15T16:49:53.822Z,99.90
2018-12-15T16:52:22.633Z,99.90
2018-12-15T16:54:51.922Z,99.90
2018-12-15T16:57:20.699Z,99.90
2018-12-15T16:59:50.355Z,99.90
2018-12-15T17:02:18.867Z,99.90
2018-12-15T17:04:47.484Z,99.90
2018-12-15T17:07:16.598Z,99.90
2018-12-15T17:09:45.520Z,99.90
2018-12-15T17:12:14.692Z,99.90
2018-12-15T17:14:44.249Z,99.90
2018-12-15T17:17:12.913Z,99.90
2018-12-15T17:19:42.590Z,99.90
2018-12-15T17:22:11.141Z,99.90
2018-12-15T17:24:39.750Z,99.90
2018-12-15T17:27:08.274Z,99.90
2018-12-15T17:29:36.802Z,99.90
2018-12-15T17:32:05.406Z,99.90
2018-12-15T17:34:33.982Z,99.90
2018-12-15T17:37:02.620Z,99.90
2018-12-15T17:39:31.953Z,99.90
2018-12-15T17:42:00.455Z,99.90
2018-12-15T17:44:29.026Z,99.90
2018-12-15T17:46:57.575Z,99.90
2018-12-15T17:49:26.185Z,99.90
2018-12-15T17:51:54.824Z,99.90
2018-12-15T17:54:23.385Z,99.90
2018-12-15T17:56:52.146Z,99.90
2018-12-15T17:59:20.672Z,99.90
2018-12-15T18:01:49.412Z,99.90
2018-12-15T18:04:18.166Z,99.90
2018-12-15T18:06:47.490Z,99.90
2018-12-15T18:09:23.366Z,99.90
2018-12-15T18:11:51.923Z,99.90
2018-12-15T18:14:20.510Z,99.90
2018-12-15T18:16:49.108Z,99.90
2018-12-15T18:19:18.244Z,99.90
2018-12-15T18:21:46.831Z,99.90
2018-12-15T18:24:15.436Z,99.90
2018-12-15T18:26:44.561Z,99.90
2018-12-15T18:29:13.148Z,99.90
2018-12-15T18:31:41.785Z,99.90
2018-12-15T18:34:10.392Z,99.90
2018-12-15T18:36:39.221Z,99.90
2018-12-15T18:39:08.306Z,99.90
2018-12-15T18:41:36.839Z,99.90
2018-12-15T18:44:05.972Z,99.90
2018-12-15T18:46:34.606Z,99.90
2018-12-15T18:49:03.298Z,99.90
2018-12-15T18:51:31.900Z,99.90
2018-12-15T18:54:00.440Z,99.90
2018-12-15T18:56:29.506Z,99.90
2018-12-15T18:58:58.476Z,99.90
2018-12-15T19:01:27.383Z,99.90
2018-12-15T19:03:56.053Z,99.90
2018-12-15T19:06:24.647Z,99.90
2018-12-15T19:08:53.355Z,99.90
2018-12-15T19:11:22.027Z,99.90
2018-12-15T19:13:50.665Z,99.90
2018-12-15T19:16:19.253Z,99.90
2018-12-15T19:18:47.911Z,99.90
2018-12-15T19:21:22.762Z,99.90
2018-12-15T19:23:47.123Z,99.90
2018-12-15T19:26:15.849Z,99.90
2018-12-15T19:28:44.514Z,99.90
2018-12-15T19:31:13.065Z,99.90
2018-12-15T19:33:41.758Z,99.90
2018-12-15T19:36:10.399Z,99.90
2018-12-15T19:38:39.335Z,99.90
2018-12-15T19:41:08.095Z,99.90
2018-12-15T19:43:36.736Z,99.90
2018-12-15T19:46:05.445Z,99.90
2018-12-15T19:48:34.094Z,99.90
2018-12-15T19:51:02.700Z,99.90
2018-12-15T19:53:31.398Z,99.90
2018-12-15T19:56:00.170Z,99.90
2018-12-15T19:58:28.781Z,99.90
2018-12-15T20:00:57.347Z,99.90
2018-12-15T20:03:25.983Z,99.90
2018-12-15T20:05:54.681Z,99.90
2018-12-15T20:08:23.267Z,99.90
2018-12-15T20:10:51.927Z,99.90
2018-12-15T20:13:20.488Z,99.90
2018-12-15T20:15:49.133Z,99.90
2018-12-15T20:18:17.655Z,99.90
2018-12-15T20:20:46.225Z,99.90
2018-12-15T20:23:14.777Z,99.90
2018-12-15T20:25:43.380Z,99.90
2018-12-15T20:28:12.018Z,99.90
2018-12-15T20:30:40.643Z,99.90
2018-12-15T20:33:11.166Z,99.90
2018-12-15T20:35:40.029Z,99.90
2018-12-15T20:38:09.081Z,99.90
2018-12-15T20:40:37.680Z,99.90
2018-12-15T20:43:13.884Z,99.90
2018-12-15T20:45:43.250Z,99.90
2018-12-15T20:48:11.874Z,99.90
2018-12-15T20:50:40.710Z,99.90
2018-12-15T20:53:09.358Z,99.90
2018-12-15T20:55:38.078Z,99.90
2018-12-15T20:58:06.693Z,99.90
2018-12-15T21:00:35.379Z,99.90
2018-12-15T21:03:04.150Z,99.90
2018-12-15T21:05:36.753Z,99.90
2018-12-15T21:08:09.828Z,99.90
2018-12-15T21:10:43.928Z,99.90
2018-12-15T21:13:14.801Z,99.90
2018-12-15T21:15:46.077Z,99.90
2018-12-15T21:18:14.750Z,99.90
2018-12-15T21:20:43.317Z,99.90
2018-12-15T21:23:11.933Z,99.90
2018-12-15T21:25:40.507Z,99.90
2018-12-15T21:28:09.311Z,99.90
2018-12-15T21:30:37.879Z,99.90
2018-12-15T21:33:06.486Z,99.90
2018-12-15T21:35:35.085Z,99.90
2018-12-15T21:38:03.694Z,99.60
2018-12-15T21:40:32.282Z,99.90
2018-12-15T21:43:01.265Z,98.80
2018-12-15T21:45:30.271Z,98.90
2018-12-15T21:47:58.903Z,98.90
2018-12-15T21:50:27.603Z,98.40
2018-12-15T21:52:56.217Z,97.80
2018-12-15T21:55:24.811Z,97.60
2018-12-15T21:57:53.442Z,98.00
2018-12-15T22:00:22.033Z,98.40
2018-12-15T22:02:50.999Z,97.90
2018-12-15T22:05:20.163Z,98.00
2018-12-15T22:07:48.780Z,97.90
2018-12-15T22:10:17.389Z,97.60
2018-12-15T22:12:45.970Z,98.00
2018-12-15T22:15:15.449Z,98.10
2018-12-15T22:17:44.038Z,98.10
2018-12-15T22:20:13.031Z,97.80
2018-12-15T22:22:41.709Z,97.50
2018-12-15T22:25:10.297Z,97.30
2018-12-15T22:27:38.863Z,97.30
2018-12-15T22:30:08.789Z,97.00
2018-12-15T22:32:37.675Z,96.80
2018-12-15T22:35:06.794Z,94.50
2018-12-15T22:37:36.369Z,96.30
2018-12-15T22:40:05.579Z,97.40
2018-12-15T22:42:34.496Z,97.70
2018-12-15T22:45:03.202Z,98.20
2018-12-15T22:47:32.857Z,98.30
2018-12-15T22:50:02.648Z,99.00
2018-12-15T22:52:31.347Z,99.30
2018-12-15T22:55:00.031Z,99.50
2018-12-15T22:57:28.756Z,99.70
2018-12-15T22:59:57.283Z,99.90
2018-12-15T23:02:25.963Z,99.90
2018-12-15T23:04:56.410Z,99.90
2018-12-15T23:07:26.185Z,99.90
2018-12-15T23:09:54.779Z,99.90
2018-12-15T23:12:23.401Z,99.90
2018-12-15T23:14:54.573Z,99.90
2018-12-15T23:17:23.633Z,99.90
2018-12-15T23:19:52.229Z,99.90
2018-12-15T23:22:20.899Z,99.90
2018-12-15T23:24:49.435Z,99.90
2018-12-15T23:27:18.056Z,99.90
2018-12-15T23:29:46.695Z,99.90
2018-12-15T23:32:16.043Z,99.90
2018-12-15T23:34:44.585Z,99.90
2018-12-15T23:37:13.157Z,99.90
2018-12-15T23:39:41.778Z,99.90
2018-12-15T23:42:10.313Z,99.90
2018-12-15T23:44:39.275Z,99.90
2018-12-15T23:47:08.211Z,99.90
2018-12-15T23:49:37.485Z,99.90
2018-12-15T23:52:06.447Z,99.90
2018-12-15T23:54:35.047Z,99.90
2018-12-15T23:57:03.630Z,99.90
2018-12-15T23:59:32.217Z,99.90
